Time;durP1;ratioP1;P1;durP2;ratioP2;P2;SDS_P1;SDS_P2;PMS_P1;PMS_P2;Temp;Humidity;BMP_temperature;BMP_pressure;BME280_temperature;BME280_humidity;BME280_pressure;Samples;Min_cycle;Max_cycle;Signal;HPM_P1;HPM_P2
2021/07/24 00:01:10;;;;;;;2.20;0.30;;;14.80;99.90;;;;;;5076256;28;20389;-81
2021/07/24 00:03:38;;;;;;;0.15;0.10;;;14.80;99.90;;;;;;5065945;28;20430;-80
2021/07/24 00:06:06;;;;;;;0.50;0.20;;;14.80;99.90;;;;;;5065899;28;20929;-79
2021/07/24 00:08:33;;;;;;;0.15;0.10;;;14.90;99.90;;;;;;5063698;28;20468;-80
2021/07/24 00:11:08;;;;;;;3.55;0.30;;;15.00;99.90;;;;;;5065609;28;20401;-83
2021/07/24 00:13:37;;;;;;;0.40;0.20;;;15.00;99.90;;;;;;5080526;28;20406;-82
2021/07/24 00:16:04;;;;;;;0.10;0.10;;;15.00;99.90;;;;;;5075894;28;20880;-82
2021/07/24 00:18:34;;;;;;;0.32;0.20;;;15.00;99.90;;;;;;5067870;28;20413;-81
2021/07/24 00:21:01;;;;;;;0.70;0.20;;;14.90;99.90;;;;;;5071623;28;20919;-83
2021/07/24 00:23:28;;;;;;;0.30;0.30;;;14.90;99.90;;;;;;5071690;28;20391;-83
2021/07/24 00:25:55;;;;;;;0.20;0.20;;;15.00;99.90;;;;;;5061247;28;20395;-83
2021/07/24 00:28:22;;;;;;;6.18;0.20;;;15.10;99.90;;;;;;5051499;28;20376;-82
2021/07/24 00:30:49;;;;;;;3.70;0.20;;;15.30;99.90;;;;;;5060036;28;20389;-82
2021/07/24 00:33:18;;;;;;;0.10;0.10;;;15.50;99.90;;;;;;5070971;28;20410;-81
2021/07/24 00:35:45;;;;;;;0.20;0.10;;;15.60;99.60;;;;;;5074139;28;20876;-82
2021/07/24 00:38:12;;;;;;;0.40;0.10;;;15.50;99.90;;;;;;5070914;28;20378;-84
2021/07/24 00:40:44;;;;;;;2.00;0.10;;;15.40;99.90;;;;;;5069882;28;20369;-81
2021/07/24 00:43:13;;;;;;;1.20;0.10;;;15.20;99.90;;;;;;5070576;28;20381;-82
2021/07/24 00:45:49;;;;;;;0.70;0.20;;;15.00;99.90;;;;;;5070882;28;20900;-83
2021/07/24 00:48:20;;;;;;;0.20;0.20;;;14.90;99.90;;;;;;5070471;28;20390;-82
2021/07/24 00:50:50;;;;;;;0.52;0.10;;;14.90;99.90;;;;;;5073997;28;20418;-83
2021/07/24 00:53:25;;;;;;;0.20;0.10;;;14.90;99.90;;;;;;5070233;28;20390;-82
2021/07/24 00:55:52;;;;;;;0.10;0.10;;;15.10;99.90;;;;;;5070166;28;20397;-83
2021/07/24 00:58:31;;;;;;;1.30;0.10;;;15.10;99.90;;;;;;5070468;28;20857;-83
2021/07/24 01:00:59;;;;;;;0.52;0.00;;;15.20;99.90;;;;;;5070008;28;20398;-82
2021/07/24 01:03:26;;;;;;;0.50;0.00;;;15.30;99.70;;;;;;5081371;28;20368;-83
2021/07/24 01:05:55;;;;;;;0.57;0.10;;;15.20;99.90;;;;;;5090089;28;20871;-83
2021/07/24 01:08:23;;;;;;;0.30;0.10;;;15.30;99.40;;;;;;5069959;28;20852;-82
2021/07/24 01:10:51;;;;;;;0.50;0.00;;;15.40;99.90;;;;;;5079227;28;20389;-83
2021/07/24 01:13:19;;;;;;;0.38;0.10;;;15.40;99.40;;;;;;5080418;28;20409;-82
2021/07/24 01:15:47;;;;;;;0.00;0.00;;;15.50;98.60;;;;;;5077407;28;20946;-82
2021/07/24 01:18:15;;;;;;;1.03;0.10;;;15.40;97.60;;;;;;5074588;28;20385;-82
2021/07/24 01:20:44;;;;;;;0.30;0.30;;;15.50;97.30;;;;;;5077122;28;20397;-82
2021/07/24 01:23:12;;;;;;;0.00;0.00;;;15.50;97.10;;;;;;5079023;28;20750;-83
2021/07/24 01:25:47;;;;;;;0.40;0.10;;;15.60;97.20;;;;;;5077348;28;20407;-82
2021/07/24 01:28:23;;;;;;;0.28;0.10;;;15.60;96.70;;;;;;5069826;28;20397;-82
2021/07/24 01:30:50;;;;;;;0.00;0.00;;;15.60;96.90;;;;;;5069641;28;20397;-82
2021/07/24 01:33:17;;;;;;;0.32;0.10;;;15.70;96.60;;;;;;5067883;28;20401;-83
2021/07/24 01:35:48;;;;;;;0.10;0.10;;;15.80;96.00;;;;;;5063756;28;20486;-81
2021/07/24 01:38:15;;;;;;;0.20;0.10;;;15.80;96.50;;;;;;5061474;28;20426;-81
2021/07/24 01:40:42;;;;;;;0.40;0.10;;;15.90;95.70;;;;;;5058327;28;20469;-81
2021/07/24 01:43:10;;;;;;;0.00;0.00;;;15.90;94.20;;;;;;5063990;28;20881;-82
2021/07/24 01:45:38;;;;;;;0.10;0.05;;;15.80;94.10;;;;;;5064968;28;20397;-82
2021/07/24 01:48:11;;;;;;;0.60;0.07;;;15.90;95.00;;;;;;5053916;28;20420;-81
2021/07/24 01:53:27;;;;;;;0.10;0.00;;;16.00;95.10;;;;;;5068516;28;20445;-83
2021/07/24 01:56:08;;;;;;;0.80;0.10;;;16.00;93.70;;;;;;5061380;28;20482;-83
2021/07/24 01:58:37;;;;;;;1.00;0.00;;;16.00;94.40;;;;;;5063812;28;20496;-83
2021/07/24 02:01:07;;;;;;;1.10;0.30;;;16.00;93.80;;;;;;5080117;28;20398;-85
2021/07/24 02:03:50;;;;;;;1.05;0.15;;;16.10;93.30;;;;;;5067936;28;20438;-84
2021/07/24 02:06:18;;;;;;;0.50;0.10;;;16.10;93.10;;;;;;5064462;28;20386;-87
2021/07/24 02:08:51;;;;;;;0.70;0.20;;;16.00;93.50;;;;;;5065548;28;20387;-82
2021/07/24 02:11:21;;;;;;;0.20;0.00;;;15.90;93.30;;;;;;5075265;28;20389;-83
2021/07/24 02:13:49;;;;;;;0.00;0.00;;;15.70;93.70;;;;;;5069420;28;20401;-83
2021/07/24 02:16:16;;;;;;;1.52;0.00;;;15.60;94.10;;;;;;5066832;28;20389;-81
2021/07/24 02:18:44;;;;;;;1.92;0.10;;;15.60;94.60;;;;;;5067380;28;20451;-84
2021/07/24 02:21:12;;;;;;;0.10;0.00;;;15.80;93.40;;;;;;5068475;28;20393;-83
2021/07/24 02:23:39;;;;;;;0.32;0.03;;;16.00;95.10;;;;;;5073017;28;20403;-83
2021/07/24 02:26:08;;;;;;;0.60;0.00;;;16.20;93.70;;;;;;5076552;28;20396;-83
2021/07/24 02:28:35;;;;;;;1.20;0.10;;;16.30;93.30;;;;;;5073705;28;20884;-84
2021/07/24 02:31:02;;;;;;;1.65;0.10;;;16.10;92.30;;;;;;5072141;28;20468;-83
2021/07/24 02:33:29;;;;;;;1.00;0.08;;;15.80;93.20;;;;;;5069257;28;20486;-81
2021/07/24 02:35:56;;;;;;;0.10;0.10;;;15.70;93.30;;;;;;5070444;28;20394;-82
2021/07/24 02:38:23;;;;;;;0.10;0.00;;;15.60;93.30;;;;;;5087308;28;21137;-82
2021/07/24 02:40:50;;;;;;;0.20;0.08;;;15.50;94.00;;;;;;5073524;28;20402;-83
2021/07/24 02:43:17;;;;;;;1.10;0.10;;;15.40;94.30;;;;;;5073369;28;20393;-83
2021/07/24 02:45:45;;;;;;;0.08;0.08;;;15.50;94.00;;;;;;5074404;28;20401;-83
2021/07/24 02:48:12;;;;;;;0.40;0.10;;;15.60;94.00;;;;;;5075156;28;20408;-83
2021/07/24 02:50:39;;;;;;;0.40;0.15;;;15.70;93.60;;;;;;5075439;28;20487;-82
2021/07/24 02:53:06;;;;;;;0.00;0.00;;;15.90;93.30;;;;;;5072440;28;20405;-82
2021/07/24 02:55:33;;;;;;;0.05;0.00;;;16.00;92.70;;;;;;5073161;28;20409;-84
2021/07/24 02:58:00;;;;;;;0.75;0.10;;;16.00;92.40;;;;;;5073569;28;20733;-82
2021/07/24 03:00:27;;;;;;;0.25;0.00;;;16.00;91.90;;;;;;5072908;28;20883;-83
2021/07/24 03:02:54;;;;;;;2.70;0.10;;;16.00;92.20;;;;;;5066648;28;20401;-82
2021/07/24 03:05:21;;;;;;;0.00;0.00;;;15.90;91.60;;;;;;5076679;28;20391;-84
2021/07/24 03:07:48;;;;;;;6.05;0.30;;;16.00;92.70;;;;;;5088719;28;20384;-85
2021/07/24 03:10:15;;;;;;;0.10;0.10;;;15.90;90.60;;;;;;5072279;28;20382;-83
2021/07/24 03:12:42;;;;;;;0.10;0.00;;;15.90;91.00;;;;;;5071759;28;20384;-81
2021/07/24 03:15:09;;;;;;;0.00;0.00;;;15.80;91.40;;;;;;5077806;28;20406;-83
2021/07/24 03:17:36;;;;;;;0.00;0.00;;;15.90;91.50;;;;;;5080789;28;20388;-83
2021/07/24 03:20:05;;;;;;;31.92;1.38;;;15.90;91.80;;;;;;5088977;28;20731;-84
2021/07/24 03:22:32;;;;;;;1.65;0.32;;;15.90;91.60;;;;;;5079867;28;20374;-81
2021/07/24 03:25:00;;;;;;;2.78;0.10;;;15.90;91.30;;;;;;5072534;28;20946;-80
2021/07/24 03:27:27;;;;;;;0.93;0.10;;;15.90;91.10;;;;;;5072090;28;20398;-81
2021/07/24 03:29:54;;;;;;;0.70;0.10;;;15.90;90.80;;;;;;5087261;28;20456;-81
2021/07/24 03:32:21;;;;;;;1.60;0.10;;;15.80;90.20;;;;;;5093051;28;20902;-83
2021/07/24 03:34:48;;;;;;;2.10;0.10;;;15.80;91.20;;;;;;5075202;28;20410;-84
2021/07/24 03:37:15;;;;;;;13.50;0.50;;;15.80;91.40;;;;;;5080584;28;20416;-82
2021/07/24 03:39:42;;;;;;;73.27;4.53;;;15.90;90.50;;;;;;5079920;28;20472;-81
2021/07/24 03:42:09;;;;;;;1.30;0.13;;;15.80;89.60;;;;;;5069514;28;20740;-81
2021/07/24 03:44:36;;;;;;;0.50;0.10;;;15.80;90.40;;;;;;5081716;28;20386;-78
2021/07/24 03:47:03;;;;;;;1.92;0.10;;;15.70;88.80;;;;;;5084106;28;20403;-80
2021/07/24 03:49:31;;;;;;;0.43;0.10;;;15.80;89.40;;;;;;5080424;28;20412;-81
2021/07/24 03:51:57;;;;;;;0.00;0.00;;;15.70;89.20;;;;;;5076028;28;20481;-81
2021/07/24 03:54:26;;;;;;;0.00;0.00;;;15.80;88.10;;;;;;5070300;28;20408;-80
2021/07/24 03:56:53;;;;;;;1.27;0.17;;;15.80;88.50;;;;;;5082513;28;20522;-78
2021/07/24 03:59:20;;;;;;;0.30;0.10;;;15.80;89.70;;;;;;5072220;28;20390;-81
2021/07/24 04:01:48;;;;;;;0.40;0.05;;;15.90;89.10;;;;;;5077868;28;20393;-81
2021/07/24 04:04:17;;;;;;;2.10;0.20;;;15.90;88.70;;;;;;5060954;28;20401;-81
2021/07/24 04:06:45;;;;;;;2.60;0.40;;;16.00;86.10;;;;;;5072472;28;20390;-81
2021/07/24 04:09:12;;;;;;;0.80;0.10;;;15.90;87.40;;;;;;5072373;28;20402;-81
2021/07/24 04:11:43;;;;;;;0.30;0.10;;;15.90;86.00;;;;;;5074640;28;20390;-79
2021/07/24 04:14:10;;;;;;;0.43;0.05;;;15.90;89.30;;;;;;5084696;28;20410;-81
2021/07/24 04:16:37;;;;;;;0.10;0.10;;;15.80;89.10;;;;;;5074057;28;20407;-81
2021/07/24 04:19:04;;;;;;;1.30;0.35;;;15.80;88.10;;;;;;5072019;28;20393;-79
2021/07/24 04:21:31;;;;;;;0.73;0.20;;;15.90;89.00;;;;;;5070029;28;20385;-81
2021/07/24 04:23:58;;;;;;;0.80;0.10;;;15.90;87.00;;;;;;5054393;28;20392;-80
2021/07/24 04:26:26;;;;;;;0.00;0.00;;;15.90;86.30;;;;;;5084127;28;20403;-80
2021/07/24 04:28:53;;;;;;;0.10;0.10;;;15.80;86.40;;;;;;5058019;28;20406;-81
2021/07/24 04:31:20;;;;;;;1.00;0.00;;;15.80;86.30;;;;;;5065457;28;20488;-80
2021/07/24 04:33:47;;;;;;;0.50;0.00;;;15.70;84.20;;;;;;5061237;28;20398;-80
2021/07/24 04:36:14;;;;;;;1.00;0.00;;;15.70;85.10;;;;;;5063485;28;21016;-80
2021/07/24 04:38:42;;;;;;;0.20;0.10;;;15.70;87.20;;;;;;5071837;28;20732;-80
2021/07/24 04:41:09;;;;;;;0.08;0.08;;;15.70;87.60;;;;;;5075544;28;20398;-80
2021/07/24 04:43:36;;;;;;;0.88;0.10;;;15.70;84.70;;;;;;5074540;28;20807;-79
2021/07/24 04:46:06;;;;;;;0.50;0.10;;;15.70;85.40;;;;;;5071199;28;20459;-80
2021/07/24 04:48:33;;;;;;;1.87;0.10;;;15.60;84.80;;;;;;5073644;28;20385;-79
2021/07/24 04:51:01;;;;;;;0.30;0.10;;;15.50;83.60;;;;;;5066291;28;20458;-80
2021/07/24 04:53:29;;;;;;;0.00;0.00;;;15.50;83.80;;;;;;5062395;28;20501;-80
2021/07/24 04:55:56;;;;;;;1.38;0.20;;;15.40;82.70;;;;;;5061876;28;20439;-79
2021/07/24 04:58:23;;;;;;;0.15;0.10;;;15.30;84.40;;;;;;5062299;28;20455;-79
2021/07/24 05:00:50;;;;;;;0.10;0.08;;;15.30;84.60;;;;;;5068874;28;20398;-79
2021/07/24 05:03:18;;;;;;;0.80;0.00;;;15.20;85.10;;;;;;5062245;28;20401;-80
2021/07/24 05:05:45;;;;;;;0.10;0.10;;;15.20;86.00;;;;;;5094138;27;20451;-80
2021/07/24 05:08:13;;;;;;;0.40;0.10;;;15.10;86.00;;;;;;5068903;28;20440;-79
2021/07/24 05:10:41;;;;;;;0.25;0.00;;;15.00;86.70;;;;;;5067735;28;20390;-80
2021/07/24 05:13:08;;;;;;;0.85;0.00;;;15.00;87.80;;;;;;5067780;28;20431;-80
2021/07/24 05:15:37;;;;;;;0.88;0.00;;;15.00;87.20;;;;;;5060550;28;20430;-80
2021/07/24 05:18:05;;;;;;;0.70;0.08;;;15.00;88.30;;;;;;5060830;28;20411;-80
2021/07/24 05:20:32;;;;;;;0.65;0.20;;;14.90;86.90;;;;;;5070045;28;20397;-79
2021/07/24 05:23:00;;;;;;;3.30;0.20;;;14.80;88.40;;;;;;5063662;28;20392;-80
2021/07/24 05:25:27;;;;;;;0.10;0.10;;;14.70;88.60;;;;;;5061312;28;20414;-80
2021/07/24 05:27:54;;;;;;;0.32;0.10;;;14.70;89.50;;;;;;5070146;28;20390;-79
2021/07/24 05:30:25;;;;;;;0.20;0.20;;;14.70;90.20;;;;;;5059826;28;20461;-79
2021/07/24 05:32:52;;;;;;;0.40;0.10;;;14.60;87.90;;;;;;5071726;28;20380;-81
2021/07/24 05:35:19;;;;;;;0.50;0.15;;;14.50;89.80;;;;;;5073003;28;20733;-81
2021/07/24 05:37:46;;;;;;;0.10;0.10;;;14.40;90.10;;;;;;5065824;28;20414;-80
2021/07/24 05:40:16;;;;;;;0.10;0.10;;;14.40;90.40;;;;;;5059043;28;20895;-80
2021/07/24 05:42:43;;;;;;;0.22;0.00;;;14.40;89.00;;;;;;5062614;28;20382;-81
2021/07/24 05:45:10;;;;;;;0.30;0.10;;;14.30;89.30;;;;;;5087599;28;20377;-81
2021/07/24 05:47:37;;;;;;;0.05;0.05;;;14.20;89.30;;;;;;5069823;28;20384;-80
2021/07/24 05:50:05;;;;;;;0.43;0.10;;;14.20;88.70;;;;;;5091321;28;20494;-81
2021/07/24 05:52:32;;;;;;;2.40;0.20;;;14.10;87.80;;;;;;5059759;28;20483;-81
2021/07/24 05:54:59;;;;;;;0.20;0.10;;;14.00;88.40;;;;;;5067699;28;20411;-81
2021/07/24 05:57:26;;;;;;;0.25;0.10;;;14.00;88.90;;;;;;5060095;28;20438;-81
2021/07/24 05:59:53;;;;;;;0.55;0.10;;;13.90;89.30;;;;;;5061520;28;20405;-80
2021/07/24 06:02:20;;;;;;;0.90;0.20;;;13.90;89.50;;;;;;5078108;28;20386;-81
2021/07/24 06:04:47;;;;;;;2.42;0.20;;;13.80;89.10;;;;;;5071852;28;20386;-79
2021/07/24 06:07:14;;;;;;;1.20;0.17;;;13.90;90.10;;;;;;5068848;28;20905;-80
2021/07/24 06:09:41;;;;;;;0.10;0.10;;;13.80;90.00;;;;;;5072390;28;22369;-80
2021/07/24 06:12:09;;;;;;;0.45;0.20;;;13.80;90.00;;;;;;5069542;28;20398;-80
2021/07/24 06:14:36;;;;;;;0.98;0.10;;;13.80;90.10;;;;;;5070205;28;20906;-81
2021/07/24 06:17:04;;;;;;;0.68;0.10;;;13.60;90.40;;;;;;5075955;28;21375;-79
2021/07/24 06:19:32;;;;;;;0.10;0.10;;;13.60;90.70;;;;;;5073846;28;20484;-78
2021/07/24 06:21:59;;;;;;;1.80;0.20;;;13.50;91.50;;;;;;5081328;28;20829;-78
2021/07/24 06:24:27;;;;;;;0.30;0.10;;;13.50;91.30;;;;;;5071309;28;20387;-78
2021/07/24 06:26:54;;;;;;;2.67;0.13;;;13.30;91.20;;;;;;5058513;28;20387;-78
2021/07/24 06:29:21;;;;;;;1.55;0.17;;;13.30;91.40;;;;;;5070404;28;20417;-80
2021/07/24 06:31:48;;;;;;;0.55;0.10;;;13.20;91.10;;;;;;5065695;28;20720;-79
2021/07/24 06:34:15;;;;;;;1.65;0.30;;;13.10;91.50;;;;;;5071886;28;20396;-78
2021/07/24 06:36:42;;;;;;;1.70;0.30;;;13.00;91.50;;;;;;5073562;28;20432;-80
2021/07/24 06:39:09;;;;;;;1.60;0.28;;;13.00;91.80;;;;;;5072990;28;20474;-79
2021/07/24 06:41:38;;;;;;;0.30;0.10;;;12.90;91.90;;;;;;5067666;28;20486;-78
2021/07/24 06:44:05;;;;;;;1.13;0.20;;;12.80;92.10;;;;;;5071785;28;20799;-78
2021/07/24 06:46:32;;;;;;;1.50;0.10;;;12.80;92.00;;;;;;5065746;28;20418;-77
2021/07/24 06:48:59;;;;;;;2.00;0.35;;;12.80;91.90;;;;;;5060694;28;20440;-78
2021/07/24 06:51:26;;;;;;;1.27;0.20;;;12.70;91.80;;;;;;5063879;28;20950;-78
2021/07/24 06:53:53;;;;;;;0.80;0.30;;;12.60;91.90;;;;;;5062879;28;20417;-79
2021/07/24 06:56:20;;;;;;;0.30;0.20;;;12.60;92.40;;;;;;5079541;28;21705;-78
2021/07/24 06:58:47;;;;;;;1.13;0.30;;;12.50;92.70;;;;;;5073827;28;20880;-78
2021/07/24 07:01:14;;;;;;;0.60;0.32;;;12.40;93.30;;;;;;5075077;28;20378;-78
2021/07/24 07:03:41;;;;;;;0.45;0.45;;;12.30;93.60;;;;;;5079067;28;20392;-78
2021/07/24 07:06:08;;;;;;;1.00;0.60;;;12.30;93.80;;;;;;5074112;28;20417;-79
2021/07/24 07:08:36;;;;;;;2.22;0.80;;;12.30;93.80;;;;;;5072376;28;20416;-78
2021/07/24 07:11:06;;;;;;;1.38;0.88;;;12.20;93.50;;;;;;5060012;28;20394;-78
2021/07/24 07:13:34;;;;;;;1.00;0.60;;;12.10;94.30;;;;;;5059592;28;20398;-78
2021/07/24 07:16:06;;;;;;;0.40;0.40;;;12.00;94.60;;;;;;5069355;28;20470;-78
2021/07/24 07:18:34;;;;;;;2.03;0.40;;;12.00;94.40;;;;;;5069289;28;20390;-78
2021/07/24 07:21:01;;;;;;;0.52;0.35;;;11.90;94.50;;;;;;5070605;28;20740;-78
2021/07/24 07:23:28;;;;;;;0.57;0.20;;;11.90;93.80;;;;;;5071808;28;20359;-78
2021/07/24 07:25:55;;;;;;;0.70;0.30;;;11.90;93.70;;;;;;5071600;28;20370;-79
2021/07/24 07:28:22;;;;;;;1.90;0.50;;;11.80;94.10;;;;;;5071265;28;20393;-80
2021/07/24 07:30:49;;;;;;;1.17;0.20;;;11.80;92.90;;;;;;5071174;28;20507;-79
2021/07/24 07:33:16;;;;;;;1.00;0.30;;;11.80;93.90;;;;;;5071318;28;20397;-78
2021/07/24 07:35:43;;;;;;;1.30;0.30;;;11.70;93.10;;;;;;5071437;28;20393;-79
2021/07/24 07:38:10;;;;;;;0.50;0.22;;;11.70;93.30;;;;;;5071507;28;20883;-79
2021/07/24 07:40:38;;;;;;;2.65;0.30;;;11.70;92.60;;;;;;5070722;28;20401;-79
2021/07/24 07:43:08;;;;;;;1.20;0.20;;;11.60;93.00;;;;;;5071182;28;20477;-78
2021/07/24 07:45:40;;;;;;;0.50;0.20;;;11.60;93.20;;;;;;5071139;28;20412;-79
2021/07/24 07:48:07;;;;;;;2.80;0.20;;;11.50;92.80;;;;;;5071043;28;20461;-79
2021/07/24 07:50:35;;;;;;;1.40;0.20;;;11.50;93.10;;;;;;5070868;28;20409;-79
2021/07/24 07:53:02;;;;;;;0.57;0.30;;;11.50;93.10;;;;;;5071315;28;20799;-79
2021/07/24 07:55:29;;;;;;;1.20;0.30;;;11.50;92.80;;;;;;5071294;28;20682;-79
2021/07/24 07:57:57;;;;;;;0.40;0.30;;;11.50;93.00;;;;;;5073511;28;20923;-79
2021/07/24 08:00:24;;;;;;;0.70;0.40;;;11.40;93.40;;;;;;5071813;28;20410;-79
2021/07/24 08:02:53;;;;;;;0.65;0.40;;;11.40;93.20;;;;;;5060090;28;20412;-79
2021/07/24 08:05:20;;;;;;;0.50;0.38;;;11.30;93.30;;;;;;5070640;28;20382;-79
2021/07/24 08:07:47;;;;;;;0.40;0.32;;;11.30;93.30;;;;;;5070568;28;20389;-78
2021/07/24 08:10:14;;;;;;;0.80;0.53;;;11.20;93.60;;;;;;5070715;28;20441;-78
2021/07/24 08:12:41;;;;;;;0.52;0.40;;;11.30;93.00;;;;;;5070420;28;20392;-80
2021/07/24 08:15:08;;;;;;;0.28;0.28;;;11.30;93.30;;;;;;5070586;28;20425;-79
2021/07/24 08:17:35;;;;;;;0.20;0.20;;;11.20;93.60;;;;;;5071183;28;20845;-79
2021/07/24 08:20:03;;;;;;;0.50;0.22;;;11.10;93.50;;;;;;5069966;28;20379;-79
2021/07/24 08:22:30;;;;;;;0.25;0.20;;;11.10;94.30;;;;;;5069214;28;20390;-79
2021/07/24 08:24:57;;;;;;;1.38;0.47;;;11.00;94.60;;;;;;5068075;28;20475;-79
2021/07/24 08:27:25;;;;;;;1.70;0.60;;;10.90;94.30;;;;;;5060952;28;20406;-80
2021/07/24 08:29:53;;;;;;;0.47;0.47;;;10.90;94.80;;;;;;5063001;28;20398;-79
2021/07/24 08:32:20;;;;;;;2.13;0.83;;;10.80;95.00;;;;;;5065508;28;20413;-78
2021/07/24 08:34:51;;;;;;;0.65;0.65;;;10.80;95.00;;;;;;5081490;28;20406;-78
2021/07/24 08:37:20;;;;;;;2.15;0.70;;;10.70;95.30;;;;;;5075582;28;20397;-78
2021/07/24 08:39:47;;;;;;;1.35;0.90;;;10.60;95.40;;;;;;5074367;28;20905;-78
2021/07/24 08:42:33;;;;;;;0.98;0.98;;;10.60;96.60;;;;;;5076713;28;20431;-78
2021/07/24 08:45:00;;;;;;;0.80;0.80;;;10.50;97.40;;;;;;5072502;28;20384;-79
2021/07/24 08:47:31;;;;;;;0.90;0.70;;;10.40;97.40;;;;;;5073067;28;20393;-79
2021/07/24 08:50:02;;;;;;;1.30;0.90;;;10.30;98.20;;;;;;5072144;28;20474;-79
2021/07/24 08:52:31;;;;;;;1.55;1.27;;;10.30;98.20;;;;;;5064357;28;20443;-79
2021/07/24 08:54:59;;;;;;;1.20;1.10;;;10.20;98.70;;;;;;5050318;28;20418;-80
2021/07/24 08:57:33;;;;;;;1.30;1.05;;;10.20;98.30;;;;;;5074466;28;20429;-80
2021/07/24 09:00:23;;;;;;;1.25;1.10;;;10.20;99.30;;;;;;5058257;28;20417;-79
2021/07/24 09:02:52;;;;;;;1.00;0.95;;;10.20;98.80;;;;;;5069724;28;20380;-79
2021/07/24 09:05:19;;;;;;;0.82;0.77;;;10.20;99.10;;;;;;5070851;28;20386;-80
2021/07/24 09:07:51;;;;;;;2.10;0.85;;;10.20;98.90;;;;;;5073055;28;20904;-80
2021/07/24 09:10:20;;;;;;;0.73;0.73;;;10.20;99.40;;;;;;5073599;28;20461;-80
2021/07/24 09:12:48;;;;;;;0.70;0.70;;;10.20;98.30;;;;;;5075013;28;20760;-79
2021/07/24 09:15:19;;;;;;;0.75;0.68;;;10.30;98.30;;;;;;5071075;28;20449;-79
2021/07/24 09:17:46;;;;;;;0.45;0.43;;;10.30;98.30;;;;;;5077434;28;20404;-79
2021/07/24 09:20:14;;;;;;;1.00;0.63;;;10.30;98.50;;;;;;5066884;28;20402;-80
2021/07/24 09:22:43;;;;;;;0.60;0.60;;;10.30;98.50;;;;;;5050893;28;20403;-79
2021/07/24 09:25:14;;;;;;;0.57;0.57;;;10.30;98.20;;;;;;5055858;28;20597;-80
2021/07/24 09:27:49;;;;;;;0.60;0.50;;;10.30;98.30;;;;;;5071524;28;20428;-80
2021/07/24 09:30:27;;;;;;;3.90;1.13;;;10.40;97.60;;;;;;5072851;28;20392;-80
2021/07/24 09:33:09;;;;;;;0.80;0.60;;;10.40;97.80;;;;;;5071888;28;20404;-81
2021/07/24 09:35:38;;;;;;;1.20;0.60;;;10.30;98.20;;;;;;5067851;28;20396;-80
2021/07/24 09:38:16;;;;;;;0.52;0.50;;;10.30;97.40;;;;;;5067828;28;20377;-79
2021/07/24 09:40:46;;;;;;;1.70;0.60;;;10.30;97.50;;;;;;5069464;28;20386;-80
2021/07/24 09:43:36;;;;;;;0.40;0.40;;;10.30;97.90;;;;;;5070637;28;20380;-80
2021/07/24 09:46:16;;;;;;;0.60;0.50;;;10.30;97.70;;;;;;5070686;28;20798;-80
2021/07/24 09:49:11;;;;;;;0.40;0.40;;;10.20;97.90;;;;;;5069044;28;20436;-80
2021/07/24 09:51:44;;;;;;;0.80;0.45;;;10.10;98.60;;;;;;5070722;28;20390;-81
2021/07/24 09:54:28;;;;;;;0.50;0.50;;;10.10;98.50;;;;;;5066690;28;20421;-81
2021/07/24 09:56:55;;;;;;;0.47;0.40;;;10.00;99.00;;;;;;5071664;28;20394;-81
2021/07/24 09:59:28;;;;;;;0.40;0.40;;;10.00;98.60;;;;;;5067574;28;20534;-82
2021/07/24 10:02:00;;;;;;;0.40;0.30;;;10.10;98.40;;;;;;5064931;28;20397;-82
2021/07/24 10:04:31;;;;;;;1.50;0.40;;;10.10;98.40;;;;;;5064978;28;20401;-81
2021/07/24 10:06:59;;;;;;;1.40;0.40;;;10.10;98.70;;;;;;5055721;28;20395;-81
2021/07/24 10:09:29;;;;;;;0.50;0.30;;;10.00;98.90;;;;;;5064014;28;20386;-81
2021/07/24 10:12:00;;;;;;;1.30;0.40;;;10.00;98.70;;;;;;5064479;28;20388;-80
2021/07/24 10:14:28;;;;;;;1.67;0.50;;;10.00;99.20;;;;;;5063647;28;20899;-81
2021/07/24 10:16:58;;;;;;;0.85;0.40;;;10.00;99.50;;;;;;5060435;28;20852;-81
2021/07/24 10:19:26;;;;;;;0.90;0.57;;;9.90;99.40;;;;;;5050586;28;20438;-81
2021/07/24 10:21:55;;;;;;;0.32;0.20;;;9.90;99.40;;;;;;5060447;28;20405;-80
2021/07/24 10:24:23;;;;;;;0.70;0.30;;;9.90;99.20;;;;;;5055395;28;20796;-81
2021/07/24 10:27:20;;;;;;;2.28;0.50;;;9.90;98.80;;;;;;5053389;28;20446;-80
2021/07/24 10:30:05;;;;;;;0.60;0.50;;;9.90;99.30;;;;;;5063494;28;20502;-81
2021/07/24 10:32:37;;;;;;;1.15;0.40;;;9.90;99.60;;;;;;5064490;28;20390;-80
2021/07/24 10:35:05;;;;;;;0.40;0.40;;;9.80;99.40;;;;;;5060618;28;20405;-78
2021/07/24 10:37:46;;;;;;;0.85;0.70;;;9.90;99.50;;;;;;5064294;28;20937;-80
2021/07/24 10:40:25;;;;;;;0.50;0.43;;;9.80;99.30;;;;;;5062545;28;20421;-81
2021/07/24 10:42:53;;;;;;;0.50;0.50;;;9.80;99.70;;;;;;5059101;28;20477;-81
2021/07/24 10:45:36;;;;;;;0.52;0.45;;;9.70;99.90;;;;;;5066684;28;20436;-81
2021/07/24 10:48:26;;;;;;;2.47;0.50;;;9.80;99.70;;;;;;5069316;28;20500;-80
2021/07/24 10:51:00;;;;;;;1.10;0.60;;;9.80;99.70;;;;;;5061465;28;20411;-80
2021/07/24 10:53:28;;;;;;;1.88;0.50;;;9.80;99.70;;;;;;5069590;28;20414;-80
2021/07/24 10:55:58;;;;;;;0.60;0.60;;;9.70;99.90;;;;;;5068344;28;20398;-80
2021/07/24 10:58:26;;;;;;;0.60;0.40;;;9.70;99.90;;;;;;5053918;28;20405;-80
2021/07/24 11:00:54;;;;;;;0.65;0.45;;;9.70;99.90;;;;;;5093768;27;20909;-80
2021/07/24 11:03:31;;;;;;;1.07;0.40;;;9.70;99.90;;;;;;5059845;28;20490;-80
2021/07/24 11:05:59;;;;;;;0.40;0.40;;;9.70;99.90;;;;;;5063548;28;20402;-80
2021/07/24 11:09:03;;;;;;;0.50;0.30;;;9.70;99.90;;;;;;5052756;28;20740;-79
2021/07/24 11:11:40;;;;;;;0.40;0.30;;;9.70;99.90;;;;;;5053556;28;20448;-80
2021/07/24 11:14:09;;;;;;;0.30;0.30;;;9.70;99.90;;;;;;5054997;28;20469;-80
2021/07/24 11:17:07;;;;;;;1.70;0.40;;;9.70;99.90;;;;;;5068553;28;20899;-80
2021/07/24 11:19:35;;;;;;;0.38;0.30;;;9.70;99.90;;;;;;5069196;28;20418;-80
2021/07/24 11:22:18;;;;;;;0.15;0.15;;;9.70;99.90;;;;;;5067555;28;20392;-80
2021/07/24 11:25:04;;;;;;;1.00;0.40;;;9.80;99.90;;;;;;5069432;28;20819;-80
2021/07/24 11:27:34;;;;;;;0.55;0.30;;;9.80;99.90;;;;;;5058467;28;20416;-80
2021/07/24 11:30:07;;;;;;;2.70;0.20;;;9.80;99.90;;;;;;5064675;28;20908;-80
2021/07/24 11:32:43;;;;;;;2.13;0.50;;;9.80;99.90;;;;;;5055428;28;20452;-81
2021/07/24 11:35:14;;;;;;;0.70;0.30;;;9.80;99.90;;;;;;5066901;28;20423;-81
2021/07/24 11:37:47;;;;;;;0.45;0.30;;;9.80;99.90;;;;;;5058742;28;20390;-79
2021/07/24 11:40:19;;;;;;;0.60;0.30;;;9.90;99.90;;;;;;5054733;28;20381;-79
2021/07/24 11:43:07;;;;;;;0.80;0.40;;;9.90;99.90;;;;;;5068703;28;20420;-79
2021/07/24 11:45:35;;;;;;;0.77;0.20;;;10.00;99.90;;;;;;5058729;28;20483;-79
2021/07/24 11:48:24;;;;;;;0.70;0.20;;;10.00;99.90;;;;;;5053648;28;20392;-80
2021/07/24 11:51:04;;;;;;;0.20;0.20;;;10.00;99.90;;;;;;5053709;28;20462;-82
2021/07/24 11:53:35;;;;;;;0.40;0.20;;;10.10;99.90;;;;;;5057163;28;20447;-79
2021/07/24 11:56:02;;;;;;;1.00;0.28;;;10.10;99.90;;;;;;5047800;28;20874;-80
2021/07/24 11:58:30;;;;;;;0.50;0.28;;;10.10;99.90;;;;;;5053302;28;20972;-80
2021/07/24 12:00:57;;;;;;;0.90;0.40;;;10.30;99.90;;;;;;5058944;28;20423;-80
2021/07/24 12:03:30;;;;;;;0.80;0.30;;;10.30;99.90;;;;;;5061833;28;20447;-80
2021/07/24 12:06:08;;;;;;;1.20;0.30;;;10.40;99.90;;;;;;5064262;28;20397;-80
2021/07/24 12:08:38;;;;;;;1.00;0.30;;;10.30;99.90;;;;;;5070268;28;20447;-80
2021/07/24 12:11:11;;;;;;;0.40;0.20;;;10.40;99.90;;;;;;5058942;28;20957;-80
2021/07/24 12:13:38;;;;;;;1.00;0.30;;;10.40;99.90;;;;;;5061859;28;20406;-80
2021/07/24 12:16:07;;;;;;;0.30;0.22;;;10.50;99.90;;;;;;5069406;28;20402;-80
2021/07/24 12:18:39;;;;;;;1.80;0.50;;;10.50;99.90;;;;;;5067618;28;20465;-79
2021/07/24 12:21:07;;;;;;;0.60;0.20;;;10.50;99.90;;;;;;5068706;28;20397;-80
2021/07/24 12:23:35;;;;;;;1.27;0.40;;;10.50;99.90;;;;;;5067744;28;20465;-80
2021/07/24 12:26:19;;;;;;;0.28;0.10;;;10.40;99.90;;;;;;5069297;28;20437;-80
2021/07/24 12:28:46;;;;;;;0.43;0.20;;;10.50;99.90;;;;;;5068213;28;20377;-81
2021/07/24 12:31:31;;;;;;;0.50;0.20;;;10.50;99.90;;;;;;5071197;28;20401;-80
2021/07/24 12:34:02;;;;;;;0.70;0.20;;;10.50;99.90;;;;;;5068483;28;20421;-79
2021/07/24 12:36:30;;;;;;;0.45;0.30;;;10.60;99.90;;;;;;5060338;28;20408;-80
2021/07/24 12:38:58;;;;;;;0.80;0.20;;;10.70;99.90;;;;;;5055645;28;20870;-80
2021/07/24 12:41:43;;;;;;;0.20;0.20;;;10.70;99.90;;;;;;5067919;28;20406;-80
2021/07/24 12:44:10;;;;;;;0.80;0.20;;;10.70;99.90;;;;;;5056846;28;20377;-80
2021/07/24 12:46:39;;;;;;;1.63;0.30;;;10.80;99.90;;;;;;5061884;28;20424;-81
2021/07/24 12:49:08;;;;;;;1.40;0.30;;;10.80;99.90;;;;;;5052493;28;20434;-82
2021/07/24 12:51:37;;;;;;;0.30;0.20;;;10.80;99.90;;;;;;5065705;28;20473;-81
2021/07/24 12:54:22;;;;;;;0.40;0.17;;;10.80;99.90;;;;;;5064230;28;20411;-79
2021/07/24 12:56:50;;;;;;;0.47;0.10;;;10.80;99.90;;;;;;5067292;28;20378;-80
2021/07/24 12:59:17;;;;;;;0.28;0.20;;;10.80;99.90;;;;;;5070490;28;20397;-81
2021/07/24 13:01:49;;;;;;;0.45;0.22;;;10.90;99.90;;;;;;5068679;28;20949;-80
2021/07/24 13:04:17;;;;;;;1.08;0.20;;;10.90;99.90;;;;;;5072838;28;20433;-80